sensor_id;sensor_type;location;lat;lon;timestamp;P1;durP1;ratioP1;P2;durP2;ratioP2
58950;SDS011;44730;53.158;6.398;2023-04-16T00:00:10;59.78;;;24.40;;
58950;SDS011;44730;53.158;6.398;2023-04-16T00:02:37;62.33;;;23.90;;
58950;SDS011;44730;53.158;6.398;2023-04-16T00:05:02;57.60;;;25.35;;
58950;SDS011;44730;53.158;6.398;2023-04-16T00:07:28;53.92;;;23.10;;
58950;SDS011;44730;53.158;6.398;2023-04-16T00:09:54;50.72;;;24.65;;
58950;SDS011;44730;53.158;6.398;2023-04-16T00:12:20;54.15;;;23.00;;
58950;SDS011;44730;53.158;6.398;2023-04-16T00:14:47;48.42;;;22.02;;
58950;SDS011;44730;53.158;6.398;2023-04-16T00:17:13;51.20;;;23.00;;
58950;SDS011;44730;53.158;6.398;2023-04-16T00:19:39;59.67;;;25.08;;
58950;SDS011;44730;53.158;6.398;2023-04-16T00:22:07;57.13;;;24.67;;
58950;SDS011;44730;53.158;6.398;2023-04-16T00:24:32;55.80;;;24.38;;
58950;SDS011;44730;53.158;6.398;2023-04-16T00:26:58;59.90;;;22.83;;
58950;SDS011;44730;53.158;6.398;2023-04-16T00:29:25;52.10;;;22.77;;
58950;SDS011;44730;53.158;6.398;2023-04-16T00:31:53;69.50;;;25.92;;
58950;SDS011;44730;53.158;6.398;2023-04-16T00:34:19;71.22;;;26.27;;
58950;SDS011;44730;53.158;6.398;2023-04-16T00:36:51;65.95;;;26.35;;
58950;SDS011;44730;53.158;6.398;2023-04-16T00:39:17;70.55;;;24.85;;
58950;SDS011;44730;53.158;6.398;2023-04-16T00:41:43;68.97;;;26.77;;
58950;SDS011;44730;53.158;6.398;2023-04-16T00:44:10;66.35;;;25.70;;
58950;SDS011;44730;53.158;6.398;2023-04-16T00:46:36;62.83;;;24.77;;
58950;SDS011;44730;53.158;6.398;2023-04-16T00:49:03;59.95;;;22.90;;
58950;SDS011;44730;53.158;6.398;2023-04-16T00:51:30;58.22;;;24.52;;
58950;SDS011;44730;53.158;6.398;2023-04-16T00:53:56;49.20;;;23.08;;
58950;SDS011;44730;53.158;6.398;2023-04-16T00:56:24;57.13;;;23.25;;
58950;SDS011;44730;53.158;6.398;2023-04-16T00:58:50;51.35;;;23.40;;
58950;SDS011;44730;53.158;6.398;2023-04-16T01:01:16;58.35;;;24.48;;
58950;SDS011;44730;53.158;6.398;2023-04-16T01:03:43;65.35;;;25.67;;
58950;SDS011;44730;53.158;6.398;2023-04-16T01:06:17;57.75;;;24.02;;
58950;SDS011;44730;53.158;6.398;2023-04-16T01:08:43;67.38;;;25.05;;
58950;SDS011;44730;53.158;6.398;2023-04-16T01:11:10;61.03;;;23.92;;
58950;SDS011;44730;53.158;6.398;2023-04-16T01:13:36;54.63;;;23.88;;
58950;SDS011;44730;53.158;6.398;2023-04-16T01:16:06;54.45;;;22.83;;
58950;SDS011;44730;53.158;6.398;2023-04-16T01:18:32;59.20;;;24.73;;
58950;SDS011;44730;53.158;6.398;2023-04-16T01:20:58;52.38;;;22.98;;
58950;SDS011;44730;53.158;6.398;2023-04-16T01:23:24;51.25;;;23.35;;
58950;SDS011;44730;53.158;6.398;2023-04-16T01:25:50;62.85;;;24.52;;
58950;SDS011;44730;53.158;6.398;2023-04-16T01:28:16;52.33;;;23.33;;
58950;SDS011;44730;53.158;6.398;2023-04-16T01:30:48;71.95;;;25.35;;
58950;SDS011;44730;53.158;6.398;2023-04-16T01:33:14;53.88;;;22.63;;
58950;SDS011;44730;53.158;6.398;2023-04-16T01:35:39;48.47;;;22.15;;
58950;SDS011;44730;53.158;6.398;2023-04-16T01:38:07;50.08;;;22.45;;
58950;SDS011;44730;53.158;6.398;2023-04-16T01:40:33;65.10;;;24.50;;
58950;SDS011;44730;53.158;6.398;2023-04-16T01:43:01;51.15;;;24.05;;
58950;SDS011;44730;53.158;6.398;2023-04-16T01:45:26;64.07;;;24.58;;
58950;SDS011;44730;53.158;6.398;2023-04-16T01:47:52;45.38;;;21.45;;
58950;SDS011;44730;53.158;6.398;2023-04-16T01:50:19;53.63;;;23.98;;
58950;SDS011;44730;53.158;6.398;2023-04-16T01:52:45;58.85;;;23.23;;
58950;SDS011;44730;53.158;6.398;2023-04-16T01:55:11;55.45;;;23.55;;
58950;SDS011;44730;53.158;6.398;2023-04-16T01:57:37;56.15;;;25.40;;
58950;SDS011;44730;53.158;6.398;2023-04-16T02:00:03;65.63;;;25.60;;
58950;SDS011;44730;53.158;6.398;2023-04-16T02:02:30;51.90;;;24.25;;
58950;SDS011;44730;53.158;6.398;2023-04-16T02:04:56;55.53;;;24.83;;
58950;SDS011;44730;53.158;6.398;2023-04-16T02:07:23;80.88;;;25.40;;
58950;SDS011;44730;53.158;6.398;2023-04-16T02:09:49;49.90;;;24.50;;
58950;SDS011;44730;53.158;6.398;2023-04-16T02:12:16;53.83;;;24.75;;
58950;SDS011;44730;53.158;6.398;2023-04-16T02:14:42;49.88;;;23.30;;
58950;SDS011;44730;53.158;6.398;2023-04-16T02:17:08;56.35;;;25.25;;
58950;SDS011;44730;53.158;6.398;2023-04-16T02:19:33;61.00;;;24.83;;
58950;SDS011;44730;53.158;6.398;2023-04-16T02:22:00;68.85;;;27.70;;
58950;SDS011;44730;53.158;6.398;2023-04-16T02:24:25;58.85;;;25.17;;
58950;SDS011;44730;53.158;6.398;2023-04-16T02:26:53;65.72;;;24.42;;
58950;SDS011;44730;53.158;6.398;2023-04-16T02:29:18;60.40;;;25.85;;
58950;SDS011;44730;53.158;6.398;2023-04-16T02:31:45;54.03;;;23.50;;
58950;SDS011;44730;53.158;6.398;2023-04-16T02:34:11;57.53;;;25.08;;
58950;SDS011;44730;53.158;6.398;2023-04-16T02:36:37;62.08;;;23.85;;
58950;SDS011;44730;53.158;6.398;2023-04-16T02:39:03;57.13;;;24.05;;
58950;SDS011;44730;53.158;6.398;2023-04-16T02:41:29;74.07;;;26.73;;
58950;SDS011;44730;53.158;6.398;2023-04-16T02:43:55;61.20;;;25.17;;
58950;SDS011;44730;53.158;6.398;2023-04-16T02:46:21;62.17;;;26.45;;
58950;SDS011;44730;53.158;6.398;2023-04-16T02:48:46;63.80;;;25.63;;
58950;SDS011;44730;53.158;6.398;2023-04-16T02:51:12;59.80;;;25.00;;
58950;SDS011;44730;53.158;6.398;2023-04-16T02:53:38;57.33;;;25.45;;
58950;SDS011;44730;53.158;6.398;2023-04-16T02:56:04;56.45;;;24.73;;
58950;SDS011;44730;53.158;6.398;2023-04-16T02:58:30;55.72;;;24.27;;
58950;SDS011;44730;53.158;6.398;2023-04-16T03:00:56;59.58;;;24.20;;
58950;SDS011;44730;53.158;6.398;2023-04-16T03:03:22;57.17;;;23.73;;
58950;SDS011;44730;53.158;6.398;2023-04-16T03:05:48;62.03;;;24.27;;
58950;SDS011;44730;53.158;6.398;2023-04-16T03:08:13;58.67;;;24.38;;
58950;SDS011;44730;53.158;6.398;2023-04-16T03:10:39;64.15;;;26.15;;
58950;SDS011;44730;53.158;6.398;2023-04-16T03:13:06;65.75;;;27.33;;
58950;SDS011;44730;53.158;6.398;2023-04-16T03:15:32;61.63;;;25.52;;
58950;SDS011;44730;53.158;6.398;2023-04-16T03:17:58;50.95;;;22.75;;
58950;SDS011;44730;53.158;6.398;2023-04-16T03:20:24;54.97;;;22.58;;
58950;SDS011;44730;53.158;6.398;2023-04-16T03:22:50;61.10;;;24.20;;
58950;SDS011;44730;53.158;6.398;2023-04-16T03:25:18;63.08;;;23.95;;
58950;SDS011;44730;53.158;6.398;2023-04-16T03:27:46;54.42;;;24.52;;
58950;SDS011;44730;53.158;6.398;2023-04-16T03:30:12;62.45;;;23.80;;
58950;SDS011;44730;53.158;6.398;2023-04-16T03:32:39;64.38;;;23.83;;
58950;SDS011;44730;53.158;6.398;2023-04-16T03:35:05;61.67;;;24.25;;
58950;SDS011;44730;53.158;6.398;2023-04-16T03:37:32;53.65;;;22.95;;
58950;SDS011;44730;53.158;6.398;2023-04-16T03:39:58;60.83;;;23.67;;
58950;SDS011;44730;53.158;6.398;2023-04-16T03:42:24;54.15;;;22.50;;
58950;SDS011;44730;53.158;6.398;2023-04-16T03:44:50;63.17;;;21.98;;
58950;SDS011;44730;53.158;6.398;2023-04-16T03:47:17;45.95;;;21.48;;
58950;SDS011;44730;53.158;6.398;2023-04-16T03:49:44;66.75;;;23.13;;
58950;SDS011;44730;53.158;6.398;2023-04-16T03:52:10;50.00;;;21.33;;
58950;SDS011;44730;53.158;6.398;2023-04-16T03:54:35;54.47;;;21.92;;
58950;SDS011;44730;53.158;6.398;2023-04-16T03:57:01;56.70;;;22.38;;
58950;SDS011;44730;53.158;6.398;2023-04-16T03:59:27;52.95;;;22.55;;
58950;SDS011;44730;53.158;6.398;2023-04-16T04:01:53;55.80;;;22.40;;
58950;SDS011;44730;53.158;6.398;2023-04-16T04:04:18;61.45;;;22.13;;
58950;SDS011;44730;53.158;6.398;2023-04-16T04:06:44;57.78;;;23.17;;
58950;SDS011;44730;53.158;6.398;2023-04-16T04:09:11;71.30;;;22.85;;
58950;SDS011;44730;53.158;6.398;2023-04-16T04:11:37;72.43;;;23.73;;
58950;SDS011;44730;53.158;6.398;2023-04-16T04:14:03;53.58;;;22.10;;
58950;SDS011;44730;53.158;6.398;2023-04-16T04:16:30;67.80;;;21.85;;
58950;SDS011;44730;53.158;6.398;2023-04-16T04:18:56;55.83;;;21.20;;
58950;SDS011;44730;53.158;6.398;2023-04-16T04:21:22;51.30;;;21.48;;
58950;SDS011;44730;53.158;6.398;2023-04-16T04:23:47;60.42;;;22.00;;
58950;SDS011;44730;53.158;6.398;2023-04-16T04:26:13;62.45;;;22.27;;
58950;SDS011;44730;53.158;6.398;2023-04-16T04:28:40;51.33;;;20.08;;
58950;SDS011;44730;53.158;6.398;2023-04-16T04:31:06;53.05;;;21.30;;
58950;SDS011;44730;53.158;6.398;2023-04-16T04:33:32;51.78;;;20.20;;
58950;SDS011;44730;53.158;6.398;2023-04-16T04:35:58;46.15;;;19.60;;
58950;SDS011;44730;53.158;6.398;2023-04-16T04:38:23;53.78;;;20.38;;
58950;SDS011;44730;53.158;6.398;2023-04-16T04:40:50;41.78;;;18.38;;
58950;SDS011;44730;53.158;6.398;2023-04-16T04:43:17;51.90;;;19.67;;
58950;SDS011;44730;53.158;6.398;2023-04-16T04:45:45;66.07;;;19.05;;
58950;SDS011;44730;53.158;6.398;2023-04-16T04:48:13;47.90;;;19.25;;
58950;SDS011;44730;53.158;6.398;2023-04-16T04:50:39;41.03;;;18.80;;
58950;SDS011;44730;53.158;6.398;2023-04-16T04:53:06;46.10;;;19.55;;
58950;SDS011;44730;53.158;6.398;2023-04-16T04:55:35;66.60;;;20.55;;
58950;SDS011;44730;53.158;6.398;2023-04-16T04:58:01;53.50;;;21.42;;
58950;SDS011;44730;53.158;6.398;2023-04-16T05:00:29;46.65;;;18.45;;
58950;SDS011;44730;53.158;6.398;2023-04-16T05:02:55;62.15;;;21.63;;
58950;SDS011;44730;53.158;6.398;2023-04-16T05:05:21;37.90;;;17.92;;
58950;SDS011;44730;53.158;6.398;2023-04-16T05:07:47;43.25;;;18.98;;
58950;SDS011;44730;53.158;6.398;2023-04-16T05:10:14;38.20;;;20.00;;
58950;SDS011;44730;53.158;6.398;2023-04-16T05:12:40;43.72;;;19.23;;
58950;SDS011;44730;53.158;6.398;2023-04-16T05:15:06;39.17;;;19.10;;
58950;SDS011;44730;53.158;6.398;2023-04-16T05:17:32;38.28;;;18.50;;
58950;SDS011;44730;53.158;6.398;2023-04-16T05:19:59;34.95;;;17.30;;
58950;SDS011;44730;53.158;6.398;2023-04-16T05:22:25;36.88;;;17.70;;
58950;SDS011;44730;53.158;6.398;2023-04-16T05:24:50;33.55;;;16.77;;
58950;SDS011;44730;53.158;6.398;2023-04-16T05:27:16;40.55;;;18.42;;
58950;SDS011;44730;53.158;6.398;2023-04-16T05:29:42;38.15;;;17.88;;
58950;SDS011;44730;53.158;6.398;2023-04-16T05:32:07;58.78;;;18.02;;
58950;SDS011;44730;53.158;6.398;2023-04-16T05:34:33;49.15;;;19.88;;
58950;SDS011;44730;53.158;6.398;2023-04-16T05:36:59;46.40;;;19.73;;
58950;SDS011;44730;53.158;6.398;2023-04-16T05:39:25;42.67;;;17.63;;
58950;SDS011;44730;53.158;6.398;2023-04-16T05:41:53;36.58;;;16.58;;
58950;SDS011;44730;53.158;6.398;2023-04-16T05:44:19;39.05;;;16.95;;
58950;SDS011;44730;53.158;6.398;2023-04-16T05:46:44;43.92;;;17.40;;
58950;SDS011;44730;53.158;6.398;2023-04-16T05:49:10;42.80;;;16.38;;
58950;SDS011;44730;53.158;6.398;2023-04-16T05:51:36;39.63;;;18.02;;
58950;SDS011;44730;53.158;6.398;2023-04-16T05:54:02;43.13;;;16.48;;
58950;SDS011;44730;53.158;6.398;2023-04-16T05:56:28;37.65;;;17.95;;
58950;SDS011;44730;53.158;6.398;2023-04-16T05:58:54;43.70;;;17.98;;
58950;SDS011;44730;53.158;6.398;2023-04-16T06:01:20;42.85;;;17.55;;
58950;SDS011;44730;53.158;6.398;2023-04-16T06:03:46;39.65;;;18.95;;
58950;SDS011;44730;53.158;6.398;2023-04-16T06:06:12;38.92;;;17.48;;
58950;SDS011;44730;53.158;6.398;2023-04-16T06:08:37;37.78;;;18.40;;
58950;SDS011;44730;53.158;6.398;2023-04-16T06:11:03;42.83;;;17.17;;
58950;SDS011;44730;53.158;6.398;2023-04-16T06:13:29;42.20;;;17.05;;
58950;SDS011;44730;53.158;6.398;2023-04-16T06:15:55;35.67;;;15.23;;
58950;SDS011;44730;53.158;6.398;2023-04-16T06:18:21;28.60;;;15.60;;
58950;SDS011;44730;53.158;6.398;2023-04-16T06:20:46;34.17;;;15.32;;
58950;SDS011;44730;53.158;6.398;2023-04-16T06:23:12;28.98;;;14.50;;
58950;SDS011;44730;53.158;6.398;2023-04-16T06:25:38;33.47;;;14.65;;
58950;SDS011;44730;53.158;6.398;2023-04-16T06:28:04;38.90;;;15.13;;
58950;SDS011;44730;53.158;6.398;2023-04-16T06:30:32;34.88;;;15.85;;
58950;SDS011;44730;53.158;6.398;2023-04-16T06:32:58;37.28;;;16.90;;
58950;SDS011;44730;53.158;6.398;2023-04-16T06:35:23;34.20;;;15.10;;
58950;SDS011;44730;53.158;6.398;2023-04-16T06:37:49;36.03;;;15.07;;
58950;SDS011;44730;53.158;6.398;2023-04-16T06:40:19;36.50;;;15.90;;
58950;SDS011;44730;53.158;6.398;2023-04-16T06:42:45;34.42;;;16.05;;
58950;SDS011;44730;53.158;6.398;2023-04-16T06:45:17;30.05;;;16.35;;
58950;SDS011;44730;53.158;6.398;2023-04-16T06:47:42;34.83;;;16.17;;
58950;SDS011;44730;53.158;6.398;2023-04-16T06:50:09;29.08;;;16.08;;
58950;SDS011;44730;53.158;6.398;2023-04-16T06:52:35;28.88;;;16.38;;
58950;SDS011;44730;53.158;6.398;2023-04-16T06:55:02;41.15;;;17.30;;
58950;SDS011;44730;53.158;6.398;2023-04-16T06:57:28;33.05;;;16.40;;
58950;SDS011;44730;53.158;6.398;2023-04-16T06:59:53;28.77;;;15.82;;
58950;SDS011;44730;53.158;6.398;2023-04-16T07:02:19;29.88;;;15.02;;
58950;SDS011;44730;53.158;6.398;2023-04-16T07:04:51;26.20;;;14.88;;
58950;SDS011;44730;53.158;6.398;2023-04-16T07:07:17;29.92;;;16.45;;
58950;SDS011;44730;53.158;6.398;2023-04-16T07:09:43;28.77;;;15.18;;
58950;SDS011;44730;53.158;6.398;2023-04-16T07:12:09;28.08;;;15.30;;
58950;SDS011;44730;53.158;6.398;2023-04-16T07:14:36;27.20;;;15.55;;
58950;SDS011;44730;53.158;6.398;2023-04-16T07:17:01;26.27;;;14.57;;
58950;SDS011;44730;53.158;6.398;2023-04-16T07:19:29;25.25;;;14.55;;
58950;SDS011;44730;53.158;6.398;2023-04-16T07:21:59;25.90;;;15.07;;
58950;SDS011;44730;53.158;6.398;2023-04-16T07:24:25;31.08;;;15.18;;
58950;SDS011;44730;53.158;6.398;2023-04-16T07:26:51;25.80;;;14.50;;
58950;SDS011;44730;53.158;6.398;2023-04-16T07:29:17;28.23;;;15.00;;
58950;SDS011;44730;53.158;6.398;2023-04-16T07:31:43;29.95;;;14.95;;
58950;SDS011;44730;53.158;6.398;2023-04-16T07:34:09;28.48;;;14.60;;
58950;SDS011;44730;53.158;6.398;2023-04-16T07:36:36;29.63;;;14.75;;
58950;SDS011;44730;53.158;6.398;2023-04-16T07:39:03;26.33;;;13.20;;
58950;SDS011;44730;53.158;6.398;2023-04-16T07:41:34;24.02;;;13.73;;
58950;SDS011;44730;53.158;6.398;2023-04-16T07:44:00;34.10;;;15.70;;
58950;SDS011;44730;53.158;6.398;2023-04-16T07:46:26;23.45;;;14.45;;
58950;SDS011;44730;53.158;6.398;2023-04-16T07:48:51;26.17;;;14.30;;
58950;SDS011;44730;53.158;6.398;2023-04-16T07:51:17;26.10;;;14.68;;
58950;SDS011;44730;53.158;6.398;2023-04-16T07:53:43;25.83;;;14.43;;
58950;SDS011;44730;53.158;6.398;2023-04-16T07:56:09;24.88;;;14.07;;
58950;SDS011;44730;53.158;6.398;2023-04-16T07:58:34;25.88;;;14.35;;
58950;SDS011;44730;53.158;6.398;2023-04-16T08:01:01;24.85;;;13.88;;
58950;SDS011;44730;53.158;6.398;2023-04-16T08:03:27;22.92;;;13.48;;
58950;SDS011;44730;53.158;6.398;2023-04-16T08:05:53;20.52;;;14.23;;
58950;SDS011;44730;53.158;6.398;2023-04-16T08:08:19;25.20;;;14.63;;
58950;SDS011;44730;53.158;6.398;2023-04-16T08:10:44;28.63;;;13.82;;
58950;SDS011;44730;53.158;6.398;2023-04-16T08:13:10;24.85;;;13.80;;
58950;SDS011;44730;53.158;6.398;2023-04-16T08:15:36;25.58;;;14.15;;
58950;SDS011;44730;53.158;6.398;2023-04-16T08:18:02;17.60;;;11.23;;
58950;SDS011;44730;53.158;6.398;2023-04-16T08:21:54;185.52;;;25.70;;
58950;SDS011;44730;53.158;6.398;2023-04-16T08:24:20;19.17;;;13.43;;
58950;SDS011;44730;53.158;6.398;2023-04-16T08:26:46;22.83;;;14.32;;
58950;SDS011;44730;53.158;6.398;2023-04-16T08:29:12;20.05;;;13.70;;
58950;SDS011;44730;53.158;6.398;2023-04-16T08:31:41;24.60;;;14.55;;
58950;SDS011;44730;53.158;6.398;2023-04-16T08:34:06;22.13;;;14.32;;
58950;SDS011;44730;53.158;6.398;2023-04-16T08:36:35;23.15;;;14.20;;
58950;SDS011;44730;53.158;6.398;2023-04-16T08:39:01;18.92;;;13.57;;
58950;SDS011;44730;53.158;6.398;2023-04-16T08:41:28;18.30;;;13.80;;
58950;SDS011;44730;53.158;6.398;2023-04-16T08:43:56;19.63;;;13.43;;
58950;SDS011;44730;53.158;6.398;2023-04-16T08:46:24;16.27;;;12.93;;
58950;SDS011;44730;53.158;6.398;2023-04-16T08:48:53;21.95;;;13.52;;
58950;SDS011;44730;53.158;6.398;2023-04-16T08:51:23;20.08;;;13.00;;
58950;SDS011;44730;53.158;6.398;2023-04-16T08:53:58;18.02;;;12.90;;
58950;SDS011;44730;53.158;6.398;2023-04-16T08:56:29;20.88;;;13.75;;
58950;SDS011;44730;53.158;6.398;2023-04-16T08:58:56;24.27;;;13.68;;
58950;SDS011;44730;53.158;6.398;2023-04-16T09:01:23;20.42;;;14.30;;
58950;SDS011;44730;53.158;6.398;2023-04-16T09:03:50;20.92;;;13.82;;
58950;SDS011;44730;53.158;6.398;2023-04-16T09:06:17;22.15;;;13.32;;
58950;SDS011;44730;53.158;6.398;2023-04-16T09:08:44;17.90;;;12.48;;
58950;SDS011;44730;53.158;6.398;2023-04-16T09:11:12;21.42;;;12.88;;
58950;SDS011;44730;53.158;6.398;2023-04-16T09:13:38;21.75;;;13.32;;
58950;SDS011;44730;53.158;6.398;2023-04-16T09:16:05;20.15;;;13.73;;
58950;SDS011;44730;53.158;6.398;2023-04-16T09:18:33;17.85;;;12.93;;
58950;SDS011;44730;53.158;6.398;2023-04-16T09:21:01;21.40;;;13.27;;
58950;SDS011;44730;53.158;6.398;2023-04-16T09:23:28;18.80;;;12.75;;
58950;SDS011;44730;53.158;6.398;2023-04-16T09:25:57;20.90;;;14.05;;
58950;SDS011;44730;53.158;6.398;2023-04-16T09:33:38;18.17;;;12.50;;
58950;SDS011;44730;53.158;6.398;2023-04-16T09:36:04;18.17;;;12.90;;
58950;SDS011;44730;53.158;6.398;2023-04-16T09:41:28;17.90;;;13.25;;
58950;SDS011;44730;53.158;6.398;2023-04-16T09:43:57;17.90;;;13.27;;
58950;SDS011;44730;53.158;6.398;2023-04-16T09:46:32;16.77;;;12.38;;
58950;SDS011;44730;53.158;6.398;2023-04-16T09:49:16;18.77;;;12.95;;
58950;SDS011;44730;53.158;6.398;2023-04-16T09:51:46;15.35;;;12.65;;
58950;SDS011;44730;53.158;6.398;2023-04-16T09:54:15;19.08;;;13.05;;
58950;SDS011;44730;53.158;6.398;2023-04-16T09:56:41;16.40;;;12.55;;
58950;SDS011;44730;53.158;6.398;2023-04-16T09:59:26;17.85;;;12.68;;
58950;SDS011;44730;53.158;6.398;2023-04-16T10:01:57;17.73;;;12.88;;
58950;SDS011;44730;53.158;6.398;2023-04-16T10:04:24;18.10;;;11.93;;
58950;SDS011;44730;53.158;6.398;2023-04-16T10:07:01;16.10;;;12.43;;
58950;SDS011;44730;53.158;6.398;2023-04-16T10:09:35;17.80;;;12.35;;
58950;SDS011;44730;53.158;6.398;2023-04-16T10:12:02;19.50;;;13.13;;
58950;SDS011;44730;53.158;6.398;2023-04-16T10:14:29;14.68;;;12.00;;
58950;SDS011;44730;53.158;6.398;2023-04-16T10:16:54;18.67;;;13.20;;
58950;SDS011;44730;53.158;6.398;2023-04-16T10:19:20;19.52;;;12.13;;
58950;SDS011;44730;53.158;6.398;2023-04-16T10:21:46;20.83;;;12.98;;
58950;SDS011;44730;53.158;6.398;2023-04-16T10:24:12;18.00;;;13.18;;
58950;SDS011;44730;53.158;6.398;2023-04-16T10:26:41;19.80;;;12.77;;
58950;SDS011;44730;53.158;6.398;2023-04-16T10:29:08;20.55;;;13.75;;
58950;SDS011;44730;53.158;6.398;2023-04-16T10:31:36;18.40;;;12.68;;
58950;SDS011;44730;53.158;6.398;2023-04-16T10:34:03;17.60;;;13.32;;
58950;SDS011;44730;53.158;6.398;2023-04-16T10:36:33;16.55;;;12.90;;
58950;SDS011;44730;53.158;6.398;2023-04-16T10:39:01;21.42;;;13.50;;
58950;SDS011;44730;53.158;6.398;2023-04-16T10:41:27;19.90;;;13.63;;
58950;SDS011;44730;53.158;6.398;2023-04-16T10:44:02;19.67;;;13.13;;
58950;SDS011;44730;53.158;6.398;2023-04-16T10:46:36;17.05;;;12.93;;
58950;SDS011;44730;53.158;6.398;2023-04-16T10:49:13;20.70;;;12.90;;
58950;SDS011;44730;53.158;6.398;2023-04-16T10:51:53;19.60;;;12.63;;
58950;SDS011;44730;53.158;6.398;2023-04-16T10:54:24;24.35;;;14.00;;
58950;SDS011;44730;53.158;6.398;2023-04-16T10:56:50;21.30;;;13.88;;
58950;SDS011;44730;53.158;6.398;2023-04-16T10:59:18;17.13;;;13.88;;
58950;SDS011;44730;53.158;6.398;2023-04-16T11:01:45;22.55;;;15.13;;
58950;SDS011;44730;53.158;6.398;2023-04-16T11:14:52;19.02;;;13.88;;
58950;SDS011;44730;53.158;6.398;2023-04-16T11:17:22;20.70;;;14.02;;
58950;SDS011;44730;53.158;6.398;2023-04-16T11:19:52;21.63;;;13.70;;
58950;SDS011;44730;53.158;6.398;2023-04-16T11:22:18;19.10;;;13.77;;
58950;SDS011;44730;53.158;6.398;2023-04-16T11:24:45;18.33;;;13.68;;
58950;SDS011;44730;53.158;6.398;2023-04-16T11:27:14;19.27;;;13.77;;
58950;SDS011;44730;53.158;6.398;2023-04-16T11:29:40;17.60;;;13.60;;
58950;SDS011;44730;53.158;6.398;2023-04-16T11:32:07;18.80;;;13.63;;
58950;SDS011;44730;53.158;6.398;2023-04-16T11:34:33;18.80;;;13.43;;
58950;SDS011;44730;53.158;6.398;2023-04-16T11:36:59;19.73;;;13.52;;
58950;SDS011;44730;53.158;6.398;2023-04-16T11:39:25;17.70;;;12.90;;
58950;SDS011;44730;53.158;6.398;2023-04-16T11:41:50;19.42;;;13.25;;
58950;SDS011;44730;53.158;6.398;2023-04-16T11:46:43;20.80;;;13.45;;
58950;SDS011;44730;53.158;6.398;2023-04-16T11:49:09;16.63;;;13.60;;
58950;SDS011;44730;53.158;6.398;2023-04-16T11:51:41;19.90;;;13.90;;
58950;SDS011;44730;53.158;6.398;2023-04-16T11:54:09;19.42;;;14.65;;
58950;SDS011;44730;53.158;6.398;2023-04-16T11:56:47;17.38;;;13.32;;
58950;SDS011;44730;53.158;6.398;2023-04-16T11:59:15;19.27;;;14.40;;
58950;SDS011;44730;53.158;6.398;2023-04-16T12:01:50;21.00;;;13.75;;
58950;SDS011;44730;53.158;6.398;2023-04-16T12:04:22;21.77;;;14.13;;
58950;SDS011;44730;53.158;6.398;2023-04-16T12:07:05;16.63;;;13.85;;
58950;SDS011;44730;53.158;6.398;2023-04-16T12:09:42;20.13;;;14.50;;
58950;SDS011;44730;53.158;6.398;2023-04-16T12:12:26;18.75;;;14.65;;
58950;SDS011;44730;53.158;6.398;2023-04-16T12:14:54;18.92;;;15.15;;
58950;SDS011;44730;53.158;6.398;2023-04-16T12:17:23;23.02;;;14.85;;
58950;SDS011;44730;53.158;6.398;2023-04-16T12:19:56;21.55;;;13.93;;
58950;SDS011;44730;53.158;6.398;2023-04-16T12:25:12;21.98;;;14.95;;
58950;SDS011;44730;53.158;6.398;2023-04-16T12:27:50;19.48;;;12.80;;
58950;SDS011;44730;53.158;6.398;2023-04-16T12:30:21;18.17;;;14.88;;
58950;SDS011;44730;53.158;6.398;2023-04-16T12:32:49;22.20;;;13.15;;
58950;SDS011;44730;53.158;6.398;2023-04-16T12:35:30;19.63;;;13.68;;
58950;SDS011;44730;53.158;6.398;2023-04-16T12:37:57;17.45;;;13.30;;
58950;SDS011;44730;53.158;6.398;2023-04-16T12:40:24;21.90;;;14.07;;
58950;SDS011;44730;53.158;6.398;2023-04-16T12:42:50;17.60;;;12.73;;
58950;SDS011;44730;53.158;6.398;2023-04-16T12:45:16;15.57;;;12.50;;
58950;SDS011;44730;53.158;6.398;2023-04-16T12:47:42;16.75;;;13.38;;
58950;SDS011;44730;53.158;6.398;2023-04-16T12:50:08;18.08;;;13.00;;
58950;SDS011;44730;53.158;6.398;2023-04-16T12:52:34;16.63;;;12.93;;
58950;SDS011;44730;53.158;6.398;2023-04-16T12:55:01;17.13;;;12.85;;
58950;SDS011;44730;53.158;6.398;2023-04-16T12:57:27;17.33;;;12.75;;
58950;SDS011;44730;53.158;6.398;2023-04-16T12:59:53;15.30;;;11.75;;
58950;SDS011;44730;53.158;6.398;2023-04-16T13:02:20;18.40;;;12.85;;
58950;SDS011;44730;53.158;6.398;2023-04-16T13:04:47;16.70;;;12.40;;
58950;SDS011;44730;53.158;6.398;2023-04-16T13:07:14;20.48;;;13.95;;
58950;SDS011;44730;53.158;6.398;2023-04-16T13:09:41;20.38;;;14.15;;
58950;SDS011;44730;53.158;6.398;2023-04-16T13:12:07;16.88;;;13.38;;
58950;SDS011;44730;53.158;6.398;2023-04-16T13:14:33;17.27;;;12.27;;
58950;SDS011;44730;53.158;6.398;2023-04-16T13:16:58;18.35;;;12.98;;
58950;SDS011;44730;53.158;6.398;2023-04-16T13:19:25;15.38;;;12.57;;
58950;SDS011;44730;53.158;6.398;2023-04-16T13:21:51;16.73;;;12.38;;
58950;SDS011;44730;53.158;6.398;2023-04-16T13:24:17;17.98;;;12.77;;
58950;SDS011;44730;53.158;6.398;2023-04-16T13:26:43;16.13;;;12.95;;
58950;SDS011;44730;53.158;6.398;2023-04-16T13:29:15;17.15;;;12.30;;
58950;SDS011;44730;53.158;6.398;2023-04-16T13:31:41;15.48;;;11.90;;
58950;SDS011;44730;53.158;6.398;2023-04-16T13:34:09;16.15;;;12.70;;
58950;SDS011;44730;53.158;6.398;2023-04-16T13:36:35;15.45;;;12.40;;
58950;SDS011;44730;53.158;6.398;2023-04-16T13:39:00;20.05;;;12.52;;
58950;SDS011;44730;53.158;6.398;2023-04-16T13:41:29;17.30;;;12.93;;
58950;SDS011;44730;53.158;6.398;2023-04-16T13:43:55;17.80;;;12.18;;
58950;SDS011;44730;53.158;6.398;2023-04-16T13:46:21;14.98;;;12.55;;
58950;SDS011;44730;53.158;6.398;2023-04-16T13:48:47;17.27;;;12.20;;
58950;SDS011;44730;53.158;6.398;2023-04-16T13:51:13;14.40;;;12.60;;
58950;SDS011;44730;53.158;6.398;2023-04-16T13:53:39;15.80;;;13.05;;
58950;SDS011;44730;53.158;6.398;2023-04-16T13:56:05;14.98;;;11.75;;
58950;SDS011;44730;53.158;6.398;2023-04-16T13:58:32;16.13;;;11.65;;
58950;SDS011;44730;53.158;6.398;2023-04-16T14:00:57;17.35;;;12.90;;
58950;SDS011;44730;53.158;6.398;2023-04-16T14:03:24;14.63;;;11.95;;
58950;SDS011;44730;53.158;6.398;2023-04-16T14:05:51;14.32;;;11.88;;
58950;SDS011;44730;53.158;6.398;2023-04-16T14:08:17;15.32;;;11.85;;
58950;SDS011;44730;53.158;6.398;2023-04-16T14:10:45;14.25;;;11.63;;
58950;SDS011;44730;53.158;6.398;2023-04-16T14:13:12;15.85;;;12.18;;
58950;SDS011;44730;53.158;6.398;2023-04-16T14:15:37;15.98;;;11.77;;
58950;SDS011;44730;53.158;6.398;2023-04-16T14:18:03;13.68;;;11.68;;
58950;SDS011;44730;53.158;6.398;2023-04-16T14:20:29;15.30;;;12.63;;
58950;SDS011;44730;53.158;6.398;2023-04-16T14:22:56;14.82;;;12.43;;
58950;SDS011;44730;53.158;6.398;2023-04-16T14:25:22;14.50;;;12.90;;
58950;SDS011;44730;53.158;6.398;2023-04-16T14:27:48;15.52;;;12.82;;
58950;SDS011;44730;53.158;6.398;2023-04-16T14:30:14;19.08;;;12.82;;
58950;SDS011;44730;53.158;6.398;2023-04-16T14:32:40;15.73;;;12.00;;
58950;SDS011;44730;53.158;6.398;2023-04-16T14:35:06;16.33;;;12.38;;
58950;SDS011;44730;53.158;6.398;2023-04-16T14:37:33;17.15;;;13.75;;
58950;SDS011;44730;53.158;6.398;2023-04-16T14:40:02;15.80;;;13.00;;
58950;SDS011;44730;53.158;6.398;2023-04-16T14:42:32;14.27;;;12.75;;
58950;SDS011;44730;53.158;6.398;2023-04-16T14:44:57;19.27;;;13.50;;